sensor_id;sensor_type;location;lat;lon;timestamp;P1;durP1;ratioP1;P2;durP2;ratioP2
48161;SDS011;33950;48.154;16.316;2022-12-31T00:00:47;130.00;;;36.65;;
48161;SDS011;33950;48.154;16.316;2022-12-31T00:03:33;115.38;;;34.85;;
48161;SDS011;33950;48.154;16.316;2022-12-31T00:06:21;106.10;;;35.30;;
48161;SDS011;33950;48.154;16.316;2022-12-31T00:09:08;118.20;;;36.70;;
48161;SDS011;33950;48.154;16.316;2022-12-31T00:11:55;118.40;;;36.42;;
48161;SDS011;33950;48.154;16.316;2022-12-31T00:14:41;121.20;;;37.20;;
48161;SDS011;33950;48.154;16.316;2022-12-31T00:17:29;138.98;;;38.67;;
48161;SDS011;33950;48.154;16.316;2022-12-31T00:20:15;129.73;;;39.20;;
48161;SDS011;33950;48.154;16.316;2022-12-31T00:23:02;123.72;;;37.85;;
48161;SDS011;33950;48.154;16.316;2022-12-31T00:25:48;115.82;;;38.28;;
48161;SDS011;33950;48.154;16.316;2022-12-31T00:28:37;113.70;;;37.65;;
48161;SDS011;33950;48.154;16.316;2022-12-31T00:31:26;122.88;;;38.10;;
48161;SDS011;33950;48.154;16.316;2022-12-31T00:34:16;126.95;;;37.60;;
48161;SDS011;33950;48.154;16.316;2022-12-31T00:37:03;116.53;;;37.25;;
48161;SDS011;33950;48.154;16.316;2022-12-31T00:39:49;104.75;;;34.88;;
48161;SDS011;33950;48.154;16.316;2022-12-31T00:42:37;103.15;;;36.10;;
48161;SDS011;33950;48.154;16.316;2022-12-31T00:45:23;103.40;;;34.92;;
48161;SDS011;33950;48.154;16.316;2022-12-31T00:48:09;100.18;;;34.55;;
48161;SDS011;33950;48.154;16.316;2022-12-31T00:50:58;103.43;;;34.00;;
48161;SDS011;33950;48.154;16.316;2022-12-31T00:53:44;93.32;;;33.47;;
48161;SDS011;33950;48.154;16.316;2022-12-31T00:56:31;89.32;;;34.35;;
48161;SDS011;33950;48.154;16.316;2022-12-31T00:59:17;89.15;;;31.83;;
48161;SDS011;33950;48.154;16.316;2022-12-31T01:02:03;85.20;;;32.85;;
48161;SDS011;33950;48.154;16.316;2022-12-31T01:04:49;87.43;;;32.50;;
48161;SDS011;33950;48.154;16.316;2022-12-31T01:07:37;79.55;;;32.92;;
48161;SDS011;33950;48.154;16.316;2022-12-31T01:10:23;79.95;;;31.08;;
48161;SDS011;33950;48.154;16.316;2022-12-31T01:13:31;82.43;;;32.20;;
48161;SDS011;33950;48.154;16.316;2022-12-31T01:16:18;83.50;;;31.27;;
48161;SDS011;33950;48.154;16.316;2022-12-31T01:19:06;84.57;;;30.80;;
48161;SDS011;33950;48.154;16.316;2022-12-31T01:21:53;80.15;;;29.95;;
48161;SDS011;33950;48.154;16.316;2022-12-31T01:24:41;87.75;;;32.42;;
48161;SDS011;33950;48.154;16.316;2022-12-31T01:27:27;88.78;;;32.20;;
48161;SDS011;33950;48.154;16.316;2022-12-31T01:30:13;100.85;;;33.42;;
48161;SDS011;33950;48.154;16.316;2022-12-31T01:32:59;88.15;;;34.08;;
48161;SDS011;33950;48.154;16.316;2022-12-31T01:35:46;84.93;;;32.35;;
48161;SDS011;33950;48.154;16.316;2022-12-31T01:38:32;79.10;;;31.63;;
48161;SDS011;33950;48.154;16.316;2022-12-31T01:41:20;83.72;;;33.47;;
48161;SDS011;33950;48.154;16.316;2022-12-31T01:47:34;78.70;;;30.85;;
48161;SDS011;33950;48.154;16.316;2022-12-31T01:50:24;80.05;;;31.52;;
48161;SDS011;33950;48.154;16.316;2022-12-31T01:53:13;75.18;;;30.73;;
48161;SDS011;33950;48.154;16.316;2022-12-31T01:56:00;81.20;;;29.77;;
48161;SDS011;33950;48.154;16.316;2022-12-31T01:58:49;70.05;;;28.92;;
48161;SDS011;33950;48.154;16.316;2022-12-31T02:01:37;68.45;;;28.70;;
48161;SDS011;33950;48.154;16.316;2022-12-31T02:04:23;68.68;;;29.33;;
48161;SDS011;33950;48.154;16.316;2022-12-31T02:07:12;72.80;;;29.70;;
48161;SDS011;33950;48.154;16.316;2022-12-31T02:09:58;79.78;;;30.83;;
48161;SDS011;33950;48.154;16.316;2022-12-31T02:12:45;70.97;;;29.73;;
48161;SDS011;33950;48.154;16.316;2022-12-31T02:15:36;70.35;;;29.05;;
48161;SDS011;33950;48.154;16.316;2022-12-31T02:18:33;68.40;;;28.55;;
48161;SDS011;33950;48.154;16.316;2022-12-31T02:21:36;67.32;;;29.05;;
48161;SDS011;33950;48.154;16.316;2022-12-31T02:24:46;66.97;;;28.35;;
48161;SDS011;33950;48.154;16.316;2022-12-31T02:27:57;69.82;;;29.05;;
48161;SDS011;33950;48.154;16.316;2022-12-31T02:30:56;72.32;;;29.10;;
48161;SDS011;33950;48.154;16.316;2022-12-31T02:33:49;58.25;;;26.30;;
48161;SDS011;33950;48.154;16.316;2022-12-31T02:36:39;63.97;;;27.42;;
48161;SDS011;33950;48.154;16.316;2022-12-31T02:39:28;67.32;;;27.63;;
48161;SDS011;33950;48.154;16.316;2022-12-31T02:42:15;64.20;;;28.17;;
48161;SDS011;33950;48.154;16.316;2022-12-31T02:45:01;61.65;;;26.52;;
48161;SDS011;33950;48.154;16.316;2022-12-31T02:47:53;62.55;;;27.42;;
48161;SDS011;33950;48.154;16.316;2022-12-31T02:51:02;72.95;;;27.92;;
48161;SDS011;33950;48.154;16.316;2022-12-31T02:54:11;60.63;;;26.95;;
48161;SDS011;33950;48.154;16.316;2022-12-31T02:57:04;68.82;;;29.33;;
48161;SDS011;33950;48.154;16.316;2022-12-31T02:59:56;65.63;;;27.60;;
48161;SDS011;33950;48.154;16.316;2022-12-31T03:03:04;65.32;;;27.95;;
48161;SDS011;33950;48.154;16.316;2022-12-31T03:05:52;71.53;;;29.00;;
48161;SDS011;33950;48.154;16.316;2022-12-31T03:08:40;73.75;;;28.83;;
48161;SDS011;33950;48.154;16.316;2022-12-31T03:11:45;70.43;;;27.75;;
48161;SDS011;33950;48.154;16.316;2022-12-31T03:14:50;68.30;;;27.58;;
48161;SDS011;33950;48.154;16.316;2022-12-31T03:17:37;69.40;;;27.25;;
48161;SDS011;33950;48.154;16.316;2022-12-31T03:20:25;68.55;;;28.27;;
48161;SDS011;33950;48.154;16.316;2022-12-31T03:23:33;68.38;;;28.83;;
48161;SDS011;33950;48.154;16.316;2022-12-31T03:26:21;64.70;;;27.95;;
48161;SDS011;33950;48.154;16.316;2022-12-31T03:29:07;64.32;;;26.65;;
48161;SDS011;33950;48.154;16.316;2022-12-31T03:31:53;66.65;;;27.77;;
48161;SDS011;33950;48.154;16.316;2022-12-31T03:34:39;60.85;;;26.75;;
48161;SDS011;33950;48.154;16.316;2022-12-31T03:37:26;70.45;;;27.80;;
48161;SDS011;33950;48.154;16.316;2022-12-31T03:40:13;70.25;;;30.67;;
48161;SDS011;33950;48.154;16.316;2022-12-31T03:43:00;67.47;;;27.88;;
48161;SDS011;33950;48.154;16.316;2022-12-31T03:45:46;67.72;;;27.70;;
48161;SDS011;33950;48.154;16.316;2022-12-31T03:48:34;61.90;;;26.42;;
48161;SDS011;33950;48.154;16.316;2022-12-31T03:51:20;63.08;;;26.98;;
48161;SDS011;33950;48.154;16.316;2022-12-31T03:54:07;66.13;;;28.10;;
48161;SDS011;33950;48.154;16.316;2022-12-31T03:56:53;60.17;;;28.33;;
48161;SDS011;33950;48.154;16.316;2022-12-31T03:59:39;62.03;;;27.05;;
48161;SDS011;33950;48.154;16.316;2022-12-31T04:02:25;61.10;;;27.20;;
48161;SDS011;33950;48.154;16.316;2022-12-31T04:05:12;60.97;;;27.52;;
48161;SDS011;33950;48.154;16.316;2022-12-31T04:07:58;62.47;;;28.90;;
48161;SDS011;33950;48.154;16.316;2022-12-31T04:10:46;65.85;;;27.95;;
48161;SDS011;33950;48.154;16.316;2022-12-31T04:13:32;57.10;;;25.70;;
48161;SDS011;33950;48.154;16.316;2022-12-31T04:16:18;61.45;;;29.23;;
48161;SDS011;33950;48.154;16.316;2022-12-31T04:19:04;59.75;;;26.60;;
48161;SDS011;33950;48.154;16.316;2022-12-31T04:21:50;59.80;;;26.98;;
48161;SDS011;33950;48.154;16.316;2022-12-31T04:24:36;63.42;;;27.50;;
48161;SDS011;33950;48.154;16.316;2022-12-31T04:27:24;60.15;;;27.92;;
48161;SDS011;33950;48.154;16.316;2022-12-31T04:30:10;60.42;;;26.17;;
48161;SDS011;33950;48.154;16.316;2022-12-31T04:32:57;52.67;;;25.13;;
48161;SDS011;33950;48.154;16.316;2022-12-31T04:35:43;57.10;;;26.42;;
48161;SDS011;33950;48.154;16.316;2022-12-31T04:38:30;61.83;;;26.42;;
48161;SDS011;33950;48.154;16.316;2022-12-31T04:41:16;57.85;;;26.10;;
48161;SDS011;33950;48.154;16.316;2022-12-31T04:44:04;52.88;;;27.02;;
48161;SDS011;33950;48.154;16.316;2022-12-31T04:46:50;56.80;;;27.00;;
48161;SDS011;33950;48.154;16.316;2022-12-31T04:49:36;52.20;;;26.25;;
48161;SDS011;33950;48.154;16.316;2022-12-31T04:52:22;52.75;;;24.80;;
48161;SDS011;33950;48.154;16.316;2022-12-31T04:55:08;60.05;;;26.88;;
48161;SDS011;33950;48.154;16.316;2022-12-31T04:57:55;56.53;;;24.85;;
48161;SDS011;33950;48.154;16.316;2022-12-31T05:00:42;58.90;;;26.30;;
48161;SDS011;33950;48.154;16.316;2022-12-31T05:03:30;59.30;;;26.38;;
48161;SDS011;33950;48.154;16.316;2022-12-31T05:06:17;59.28;;;26.13;;
48161;SDS011;33950;48.154;16.316;2022-12-31T05:09:05;56.63;;;25.98;;
48161;SDS011;33950;48.154;16.316;2022-12-31T05:11:51;53.40;;;24.27;;
48161;SDS011;33950;48.154;16.316;2022-12-31T05:14:37;56.55;;;26.17;;
48161;SDS011;33950;48.154;16.316;2022-12-31T05:17:25;55.30;;;25.27;;
48161;SDS011;33950;48.154;16.316;2022-12-31T05:20:11;55.63;;;24.75;;
48161;SDS011;33950;48.154;16.316;2022-12-31T05:22:57;52.22;;;25.60;;
48161;SDS011;33950;48.154;16.316;2022-12-31T05:25:43;52.80;;;24.25;;
48161;SDS011;33950;48.154;16.316;2022-12-31T05:28:31;55.30;;;26.15;;
48161;SDS011;33950;48.154;16.316;2022-12-31T05:31:17;51.22;;;24.08;;
48161;SDS011;33950;48.154;16.316;2022-12-31T05:34:04;52.90;;;25.70;;
48161;SDS011;33950;48.154;16.316;2022-12-31T05:36:50;57.13;;;25.77;;
48161;SDS011;33950;48.154;16.316;2022-12-31T05:39:36;53.85;;;25.77;;
48161;SDS011;33950;48.154;16.316;2022-12-31T05:42:22;54.03;;;25.65;;
48161;SDS011;33950;48.154;16.316;2022-12-31T05:45:09;51.65;;;24.55;;
48161;SDS011;33950;48.154;16.316;2022-12-31T05:47:58;57.13;;;26.08;;
48161;SDS011;33950;48.154;16.316;2022-12-31T05:50:47;58.47;;;26.80;;
48161;SDS011;33950;48.154;16.316;2022-12-31T05:53:33;59.33;;;26.65;;
48161;SDS011;33950;48.154;16.316;2022-12-31T05:56:19;55.70;;;26.42;;
48161;SDS011;33950;48.154;16.316;2022-12-31T05:59:05;52.45;;;25.13;;
48161;SDS011;33950;48.154;16.316;2022-12-31T06:01:51;55.90;;;26.75;;
48161;SDS011;33950;48.154;16.316;2022-12-31T06:04:37;62.17;;;28.02;;
48161;SDS011;33950;48.154;16.316;2022-12-31T06:07:25;56.03;;;27.73;;
48161;SDS011;33950;48.154;16.316;2022-12-31T06:10:11;60.90;;;27.63;;
48161;SDS011;33950;48.154;16.316;2022-12-31T06:12:57;58.63;;;26.30;;
48161;SDS011;33950;48.154;16.316;2022-12-31T06:15:43;62.58;;;27.67;;
48161;SDS011;33950;48.154;16.316;2022-12-31T06:18:29;60.47;;;27.23;;
48161;SDS011;33950;48.154;16.316;2022-12-31T06:21:15;57.67;;;28.02;;
48161;SDS011;33950;48.154;16.316;2022-12-31T06:24:03;65.25;;;29.27;;
48161;SDS011;33950;48.154;16.316;2022-12-31T06:26:50;68.05;;;29.15;;
48161;SDS011;33950;48.154;16.316;2022-12-31T06:29:36;62.30;;;29.35;;
48161;SDS011;33950;48.154;16.316;2022-12-31T06:32:22;55.95;;;26.13;;
48161;SDS011;33950;48.154;16.316;2022-12-31T06:35:08;53.25;;;25.88;;
48161;SDS011;33950;48.154;16.316;2022-12-31T06:37:54;53.55;;;25.02;;
48161;SDS011;33950;48.154;16.316;2022-12-31T06:40:42;55.72;;;25.25;;
48161;SDS011;33950;48.154;16.316;2022-12-31T06:43:28;60.67;;;26.00;;
48161;SDS011;33950;48.154;16.316;2022-12-31T06:46:15;51.67;;;26.10;;
48161;SDS011;33950;48.154;16.316;2022-12-31T06:49:02;58.78;;;27.85;;
48161;SDS011;33950;48.154;16.316;2022-12-31T06:51:48;57.25;;;25.48;;
48161;SDS011;33950;48.154;16.316;2022-12-31T06:54:34;56.47;;;25.83;;
48161;SDS011;33950;48.154;16.316;2022-12-31T06:57:23;50.75;;;24.73;;
48161;SDS011;33950;48.154;16.316;2022-12-31T07:00:10;53.92;;;25.63;;
48161;SDS011;33950;48.154;16.316;2022-12-31T07:03:07;53.72;;;26.13;;
48161;SDS011;33950;48.154;16.316;2022-12-31T07:06:04;55.50;;;25.42;;
48161;SDS011;33950;48.154;16.316;2022-12-31T07:08:59;55.47;;;24.98;;
48161;SDS011;33950;48.154;16.316;2022-12-31T07:11:53;55.25;;;26.73;;
48161;SDS011;33950;48.154;16.316;2022-12-31T07:14:49;53.45;;;26.52;;
48161;SDS011;33950;48.154;16.316;2022-12-31T07:17:40;53.03;;;25.75;;
48161;SDS011;33950;48.154;16.316;2022-12-31T07:20:33;53.67;;;24.27;;
48161;SDS011;33950;48.154;16.316;2022-12-31T07:23:20;47.92;;;25.02;;
48161;SDS011;33950;48.154;16.316;2022-12-31T07:26:09;49.20;;;24.00;;
48161;SDS011;33950;48.154;16.316;2022-12-31T07:29:04;46.70;;;23.67;;
48161;SDS011;33950;48.154;16.316;2022-12-31T07:31:59;50.63;;;24.35;;
48161;SDS011;33950;48.154;16.316;2022-12-31T07:34:57;47.67;;;24.42;;
48161;SDS011;33950;48.154;16.316;2022-12-31T07:37:50;49.78;;;23.90;;
48161;SDS011;33950;48.154;16.316;2022-12-31T07:40:48;47.08;;;23.65;;
48161;SDS011;33950;48.154;16.316;2022-12-31T07:43:45;44.20;;;22.88;;
48161;SDS011;33950;48.154;16.316;2022-12-31T07:46:39;51.13;;;25.10;;
48161;SDS011;33950;48.154;16.316;2022-12-31T07:49:35;47.97;;;24.05;;
48161;SDS011;33950;48.154;16.316;2022-12-31T07:52:26;48.25;;;22.58;;
48161;SDS011;33950;48.154;16.316;2022-12-31T07:55:13;51.72;;;24.08;;
48161;SDS011;33950;48.154;16.316;2022-12-31T07:58:00;49.20;;;24.88;;
48161;SDS011;33950;48.154;16.316;2022-12-31T08:00:55;55.38;;;25.70;;
48161;SDS011;33950;48.154;16.316;2022-12-31T08:03:45;52.03;;;26.20;;
48161;SDS011;33950;48.154;16.316;2022-12-31T08:06:42;51.05;;;24.05;;
48161;SDS011;33950;48.154;16.316;2022-12-31T08:09:38;48.70;;;24.77;;
48161;SDS011;33950;48.154;16.316;2022-12-31T08:12:31;49.25;;;25.35;;
48161;SDS011;33950;48.154;16.316;2022-12-31T08:15:20;47.13;;;23.05;;
48161;SDS011;33950;48.154;16.316;2022-12-31T08:18:07;50.88;;;25.52;;
48161;SDS011;33950;48.154;16.316;2022-12-31T08:20:55;47.13;;;23.38;;
48161;SDS011;33950;48.154;16.316;2022-12-31T08:23:52;53.65;;;24.95;;
48161;SDS011;33950;48.154;16.316;2022-12-31T08:26:46;47.95;;;24.95;;
48161;SDS011;33950;48.154;16.316;2022-12-31T08:29:40;52.17;;;24.50;;
48161;SDS011;33950;48.154;16.316;2022-12-31T08:32:37;46.90;;;23.77;;
48161;SDS011;33950;48.154;16.316;2022-12-31T08:35:32;49.13;;;25.25;;
48161;SDS011;33950;48.154;16.316;2022-12-31T08:38:30;48.13;;;23.75;;
48161;SDS011;33950;48.154;16.316;2022-12-31T08:41:25;54.63;;;23.75;;
48161;SDS011;33950;48.154;16.316;2022-12-31T08:44:16;45.42;;;24.38;;
48161;SDS011;33950;48.154;16.316;2022-12-31T08:47:11;45.65;;;24.08;;
48161;SDS011;33950;48.154;16.316;2022-12-31T08:50:12;53.88;;;24.35;;
48161;SDS011;33950;48.154;16.316;2022-12-31T08:52:59;43.40;;;21.83;;
48161;SDS011;33950;48.154;16.316;2022-12-31T08:55:45;42.47;;;21.58;;
48161;SDS011;33950;48.154;16.316;2022-12-31T08:58:38;47.22;;;23.92;;
48161;SDS011;33950;48.154;16.316;2022-12-31T09:01:31;48.53;;;23.65;;
48161;SDS011;33950;48.154;16.316;2022-12-31T09:04:24;44.80;;;23.15;;
48161;SDS011;33950;48.154;16.316;2022-12-31T09:07:17;44.03;;;23.25;;
48161;SDS011;33950;48.154;16.316;2022-12-31T09:10:14;47.60;;;24.13;;
48161;SDS011;33950;48.154;16.316;2022-12-31T09:13:07;42.63;;;22.58;;
48161;SDS011;33950;48.154;16.316;2022-12-31T09:16:03;43.65;;;22.83;;
48161;SDS011;33950;48.154;16.316;2022-12-31T09:18:58;51.83;;;23.95;;
48161;SDS011;33950;48.154;16.316;2022-12-31T09:21:44;54.22;;;24.55;;
48161;SDS011;33950;48.154;16.316;2022-12-31T09:24:30;54.15;;;25.20;;
48161;SDS011;33950;48.154;16.316;2022-12-31T09:27:17;49.03;;;26.02;;
48161;SDS011;33950;48.154;16.316;2022-12-31T09:30:09;50.80;;;26.58;;
48161;SDS011;33950;48.154;16.316;2022-12-31T09:32:59;55.40;;;25.20;;
48161;SDS011;33950;48.154;16.316;2022-12-31T09:35:50;53.47;;;25.58;;
48161;SDS011;33950;48.154;16.316;2022-12-31T09:38:40;49.50;;;24.60;;
48161;SDS011;33950;48.154;16.316;2022-12-31T09:45:10;52.28;;;26.40;;
48161;SDS011;33950;48.154;16.316;2022-12-31T09:51:41;51.65;;;26.08;;
48161;SDS011;33950;48.154;16.316;2022-12-31T09:54:36;46.55;;;25.55;;
48161;SDS011;33950;48.154;16.316;2022-12-31T09:57:38;52.75;;;25.92;;
48161;SDS011;33950;48.154;16.316;2022-12-31T10:00:27;48.47;;;25.00;;
48161;SDS011;33950;48.154;16.316;2022-12-31T10:03:27;50.53;;;25.30;;
48161;SDS011;33950;48.154;16.316;2022-12-31T10:06:23;56.35;;;28.60;;
48161;SDS011;33950;48.154;16.316;2022-12-31T10:09:18;58.08;;;28.48;;
48161;SDS011;33950;48.154;16.316;2022-12-31T10:12:22;60.25;;;27.50;;
48161;SDS011;33950;48.154;16.316;2022-12-31T10:18:38;55.63;;;27.92;;
48161;SDS011;33950;48.154;16.316;2022-12-31T10:21:56;52.42;;;26.65;;
48161;SDS011;33950;48.154;16.316;2022-12-31T10:25:00;57.88;;;27.17;;
48161;SDS011;33950;48.154;16.316;2022-12-31T10:28:12;52.35;;;27.55;;
48161;SDS011;33950;48.154;16.316;2022-12-31T10:31:12;52.35;;;27.00;;
48161;SDS011;33950;48.154;16.316;2022-12-31T10:34:02;53.70;;;26.33;;
48161;SDS011;33950;48.154;16.316;2022-12-31T10:37:00;47.00;;;24.35;;
48161;SDS011;33950;48.154;16.316;2022-12-31T10:39:53;49.30;;;26.73;;
48161;SDS011;33950;48.154;16.316;2022-12-31T10:43:12;50.17;;;26.30;;
48161;SDS011;33950;48.154;16.316;2022-12-31T10:49:57;45.92;;;25.65;;
48161;SDS011;33950;48.154;16.316;2022-12-31T10:56:39;48.83;;;25.60;;
48161;SDS011;33950;48.154;16.316;2022-12-31T11:06:45;53.63;;;27.77;;
48161;SDS011;33950;48.154;16.316;2022-12-31T11:10:05;49.55;;;27.17;;
48161;SDS011;33950;48.154;16.316;2022-12-31T11:16:41;49.75;;;26.30;;
48161;SDS011;33950;48.154;16.316;2022-12-31T11:19:37;45.58;;;26.15;;
48161;SDS011;33950;48.154;16.316;2022-12-31T11:22:41;46.10;;;25.80;;
48161;SDS011;33950;48.154;16.316;2022-12-31T11:25:42;45.90;;;26.00;;
48161;SDS011;33950;48.154;16.316;2022-12-31T11:28:47;47.83;;;25.13;;
48161;SDS011;33950;48.154;16.316;2022-12-31T11:31:49;47.92;;;25.88;;
48161;SDS011;33950;48.154;16.316;2022-12-31T11:37:41;48.25;;;26.10;;
48161;SDS011;33950;48.154;16.316;2022-12-31T11:40:34;47.75;;;26.02;;
48161;SDS011;33950;48.154;16.316;2022-12-31T11:43:26;48.30;;;26.40;;
48161;SDS011;33950;48.154;16.316;2022-12-31T11:46:30;45.85;;;25.65;;
48161;SDS011;33950;48.154;16.316;2022-12-31T11:49:31;49.72;;;25.73;;
48161;SDS011;33950;48.154;16.316;2022-12-31T11:55:39;44.03;;;24.45;;
48161;SDS011;33950;48.154;16.316;2022-12-31T11:58:35;45.17;;;26.17;;
48161;SDS011;33950;48.154;16.316;2022-12-31T12:01:21;46.28;;;24.40;;
48161;SDS011;33950;48.154;16.316;2022-12-31T12:04:12;43.72;;;24.17;;
48161;SDS011;33950;48.154;16.316;2022-12-31T12:06:59;42.50;;;25.13;;
48161;SDS011;33950;48.154;16.316;2022-12-31T12:09:46;44.08;;;25.20;;
48161;SDS011;33950;48.154;16.316;2022-12-31T12:12:38;45.80;;;26.15;;
48161;SDS011;33950;48.154;16.316;2022-12-31T12:15:26;44.22;;;25.35;;
48161;SDS011;33950;48.154;16.316;2022-12-31T12:21:20;44.60;;;26.35;;
48161;SDS011;33950;48.154;16.316;2022-12-31T12:24:16;46.70;;;26.00;;
48161;SDS011;33950;48.154;16.316;2022-12-31T12:27:15;45.38;;;24.83;;
48161;SDS011;33950;48.154;16.316;2022-12-31T12:30:09;43.08;;;25.35;;
48161;SDS011;33950;48.154;16.316;2022-12-31T12:32:57;46.13;;;25.17;;
48161;SDS011;33950;48.154;16.316;2022-12-31T12:35:45;42.38;;;24.67;;
48161;SDS011;33950;48.154;16.316;2022-12-31T12:38:31;46.55;;;26.10;;
48161;SDS011;33950;48.154;16.316;2022-12-31T12:41:20;47.00;;;25.73;;
48161;SDS011;33950;48.154;16.316;2022-12-31T12:44:13;39.72;;;23.48;;
48161;SDS011;33950;48.154;16.316;2022-12-31T12:47:04;44.30;;;24.25;;
48161;SDS011;33950;48.154;16.316;2022-12-31T12:49:52;44.72;;;25.33;;
48161;SDS011;33950;48.154;16.316;2022-12-31T12:52:44;42.15;;;24.48;;
48161;SDS011;33950;48.154;16.316;2022-12-31T12:55:45;42.78;;;23.40;;
48161;SDS011;33950;48.154;16.316;2022-12-31T12:58:47;41.97;;;23.77;;
48161;SDS011;33950;48.154;16.316;2022-12-31T13:01:42;47.03;;;24.17;;
48161;SDS011;33950;48.154;16.316;2022-12-31T13:04:43;41.75;;;24.08;;
48161;SDS011;33950;48.154;16.316;2022-12-31T13:10:48;43.85;;;24.30;;
48161;SDS011;33950;48.154;16.316;2022-12-31T13:13:43;46.50;;;24.48;;
48161;SDS011;33950;48.154;16.316;2022-12-31T13:16:39;47.20;;;24.27;;
48161;SDS011;33950;48.154;16.316;2022-12-31T13:19:33;44.92;;;24.05;;
48161;SDS011;33950;48.154;16.316;2022-12-31T13:22:27;42.72;;;24.45;;
48161;SDS011;33950;48.154;16.316;2022-12-31T13:25:21;44.45;;;25.05;;
48161;SDS011;33950;48.154;16.316;2022-12-31T13:28:13;46.25;;;25.73;;
48161;SDS011;33950;48.154;16.316;2022-12-31T13:31:04;44.80;;;24.75;;
48161;SDS011;33950;48.154;16.316;2022-12-31T13:33:54;47.22;;;27.02;;
48161;SDS011;33950;48.154;16.316;2022-12-31T13:36:43;45.60;;;25.20;;
48161;SDS011;33950;48.154;16.316;2022-12-31T13:39:35;44.58;;;25.30;;
48161;SDS011;33950;48.154;16.316;2022-12-31T13:42:27;48.20;;;27.02;;
48161;SDS011;33950;48.154;16.316;2022-12-31T13:45:21;48.33;;;25.92;;
48161;SDS011;33950;48.154;16.316;2022-12-31T13:48:15;46.63;;;26.50;;
48161;SDS011;33950;48.154;16.316;2022-12-31T13:53:56;45.78;;;25.95;;
48161;SDS011;33950;48.154;16.316;2022-12-31T13:56:47;49.15;;;27.67;;
48161;SDS011;33950;48.154;16.316;2022-12-31T13:59:36;48.83;;;27.55;;
48161;SDS011;33950;48.154;16.316;2022-12-31T14:02:28;48.90;;;26.48;;
48161;SDS011;33950;48.154;16.316;2022-12-31T14:05:23;51.50;;;27.63;;
48161;SDS011;33950;48.154;16.316;2022-12-31T14:08:14;53.15;;;29.40;;
48161;SDS011;33950;48.154;16.316;2022-12-31T14:11:02;48.95;;;26.77;;
48161;SDS011;33950;48.154;16.316;2022-12-31T14:14:11;52.58;;;27.85;;
48161;SDS011;33950;48.154;16.316;2022-12-31T14:17:31;52.08;;;28.02;;
48161;SDS011;33950;48.154;16.316;2022-12-31T14:20:27;48.28;;;28.50;;
48161;SDS011;33950;48.154;16.316;2022-12-31T14:23:18;50.00;;;27.95;;
48161;SDS011;33950;48.154;16.316;2022-12-31T14:26:13;58.28;;;29.75;;
48161;SDS011;33950;48.154;16.316;2022-12-31T14:29:17;57.65;;;29.38;;
48161;SDS011;33950;48.154;16.316;2022-12-31T14:32:19;57.88;;;30.50;;
48161;SDS011;33950;48.154;16.316;2022-12-31T14:35:31;54.35;;;28.63;;
48161;SDS011;33950;48.154;16.316;2022-12-31T14:38:27;56.78;;;29.08;;
48161;SDS011;33950;48.154;16.316;2022-12-31T14:44:41;56.80;;;31.33;;
48161;SDS011;33950;48.154;16.316;2022-12-31T14:47:44;55.28;;;30.50;;
48161;SDS011;33950;48.154;16.316;2022-12-31T14:50:36;62.92;;;32.38;;
48161;SDS011;33950;48.154;16.316;2022-12-31T14:53:25;55.38;;;29.75;;
48161;SDS011;33950;48.154;16.316;2022-12-31T14:56:25;61.03;;;30.10;;
48161;SDS011;33950;48.154;16.316;2022-12-31T14:59:22;60.42;;;30.90;;
48161;SDS011;33950;48.154;16.316;2022-12-31T15:02:24;61.85;;;30.02;;
48161;SDS011;33950;48.154;16.316;2022-12-31T15:05:18;59.63;;;31.52;;
48161;SDS011;33950;48.154;16.316;2022-12-31T15:08:28;55.95;;;28.10;;
48161;SDS011;33950;48.154;16.316;2022-12-31T15:11:42;60.63;;;31.60;;
48161;SDS011;33950;48.154;16.316;2022-12-31T15:18:04;58.40;;;30.90;;
48161;SDS011;33950;48.154;16.316;2022-12-31T15:21:11;64.00;;;30.90;;
48161;SDS011;33950;48.154;16.316;2022-12-31T15:24:19;62.13;;;29.85;;
48161;SDS011;33950;48.154;16.316;2022-12-31T15:27:16;61.40;;;31.48;;
48161;SDS011;33950;48.154;16.316;2022-12-31T15:30:29;60.58;;;31.77;;
48161;SDS011;33950;48.154;16.316;2022-12-31T15:33:35;67.80;;;32.67;;
48161;SDS011;33950;48.154;16.316;2022-12-31T15:36:31;64.10;;;32.25;;
48161;SDS011;33950;48.154;16.316;2022-12-31T15:39:35;75.25;;;37.50;;
48161;SDS011;33950;48.154;16.316;2022-12-31T15:42:32;60.95;;;31.77;;
48161;SDS011;33950;48.154;16.316;2022-12-31T15:45:49;57.70;;;31.83;;
48161;SDS011;33950;48.154;16.316;2022-12-31T15:48:45;60.13;;;31.00;;
48161;SDS011;33950;48.154;16.316;2022-12-31T15:51:47;64.88;;;32.80;;
48161;SDS011;33950;48.154;16.316;2022-12-31T15:54:38;67.70;;;33.67;;
48161;SDS011;33950;48.154;16.316;2022-12-31T15:57:28;60.72;;;32.17;;
48161;SDS011;33950;48.154;16.316;2022-12-31T16:00:18;74.40;;;38.30;;
48161;SDS011;33950;48.154;16.316;2022-12-31T16:03:09;70.07;;;36.08;;
48161;SDS011;33950;48.154;16.316;2022-12-31T16:06:08;61.33;;;33.63;;
48161;SDS011;33950;48.154;16.316;2022-12-31T16:08:56;65.05;;;33.50;;
48161;SDS011;33950;48.154;16.316;2022-12-31T16:11:44;69.32;;;33.92;;
48161;SDS011;33950;48.154;16.316;2022-12-31T16:14:31;64.30;;;34.22;;
48161;SDS011;33950;48.154;16.316;2022-12-31T16:17:24;65.40;;;34.78;;
48161;SDS011;33950;48.154;16.316;2022-12-31T16:20:20;63.45;;;34.72;;
48161;SDS011;33950;48.154;16.316;2022-12-31T16:23:14;74.25;;;36.50;;
48161;SDS011;33950;48.154;16.316;2022-12-31T16:26:07;73.82;;;38.63;;
48161;SDS011;33950;48.154;16.316;2022-12-31T16:28:56;78.28;;;39.88;;
48161;SDS011;33950;48.154;16.316;2022-12-31T16:31:44;68.95;;;36.60;;
48161;SDS011;33950;48.154;16.316;2022-12-31T16:34:34;71.97;;;36.53;;
48161;SDS011;33950;48.154;16.316;2022-12-31T16:37:22;72.00;;;37.13;;
48161;SDS011;33950;48.154;16.316;2022-12-31T16:40:19;75.43;;;40.95;;
48161;SDS011;33950;48.154;16.316;2022-12-31T16:46:13;76.78;;;40.58;;
48161;SDS011;33950;48.154;16.316;2022-12-31T16:49:04;75.72;;;38.40;;
48161;SDS011;33950;48.154;16.316;2022-12-31T16:51:59;89.28;;;44.67;;
48161;SDS011;33950;48.154;16.316;2022-12-31T16:54:47;83.45;;;42.88;;
48161;SDS011;33950;48.154;16.316;2022-12-31T16:57:34;83.90;;;42.75;;
48161;SDS011;33950;48.154;16.316;2022-12-31T17:00:24;81.18;;;41.65;;
48161;SDS011;33950;48.154;16.316;2022-12-31T17:03:15;82.35;;;42.45;;
48161;SDS011;33950;48.154;16.316;2022-12-31T17:06:10;78.97;;;42.10;;
48161;SDS011;33950;48.154;16.316;2022-12-31T17:12:08;76.82;;;41.40;;
48161;SDS011;33950;48.154;16.316;2022-12-31T17:15:01;92.90;;;47.03;;
48161;SDS011;33950;48.154;16.316;2022-12-31T17:17:49;117.35;;;56.20;;
48161;SDS011;33950;48.154;16.316;2022-12-31T17:20:40;113.00;;;57.08;;
48161;SDS011;33950;48.154;16.316;2022-12-31T17:23:27;108.18;;;55.28;;
48161;SDS011;33950;48.154;16.316;2022-12-31T17:26:20;101.07;;;54.20;;
48161;SDS011;33950;48.154;16.316;2022-12-31T17:29:15;99.53;;;51.78;;
48161;SDS011;33950;48.154;16.316;2022-12-31T17:32:04;95.25;;;48.90;;